Time;durP1;ratioP1;P1;durP2;ratioP2;P2;SDS_P1;SDS_P2;PMS_P1;PMS_P2;Temp;Humidity;BMP_temperature;BMP_pressure;BME280_temperature;BME280_humidity;BME280_pressure;Samples;Min_cycle;Max_cycle;Signal;HPM_P1;HPM_P2
2022/10/18 00:04:55;;;;;;;20.60;13.48;;;;;;;14.76;100.00;102349.75;4980729;28;20517;-85
2022/10/18 00:07:59;;;;;;;23.90;16.17;;;;;;;14.80;100.00;102345.56;5029848;28;20523;-85
2022/10/18 00:11:18;;;;;;;17.88;13.43;;;;;;;14.81;100.00;102336.31;4986854;28;20043;-85
2022/10/18 00:17:20;;;;;;;21.48;15.27;;;;;;;14.74;100.00;102340.91;5028472;28;20082;-85
2022/10/18 00:20:29;;;;;;;13.85;12.32;;;;;;;14.79;100.00;102343.88;4997324;28;20049;-85
2022/10/18 00:23:04;;;;;;;19.95;12.15;;;;;;;14.78;100.00;102342.19;4922036;28;20050;-85
2022/10/18 00:25:33;;;;;;;22.70;14.15;;;;;;;14.66;100.00;102344.66;4981553;28;20041;-85
2022/10/18 00:28:05;;;;;;;30.15;15.00;;;;;;;14.73;100.00;102350.19;5046058;28;20059;-85
2022/10/18 00:30:32;;;;;;;25.02;13.45;;;;;;;14.65;100.00;102351.19;5066615;28;20052;-85
2022/10/18 00:33:38;;;;;;;20.10;13.73;;;;;;;14.64;100.00;102351.38;5062161;28;20053;-86
2022/10/18 00:36:09;;;;;;;;;;;;;;;14.66;100.00;102347.41;4967989;28;20058;-85
2022/10/18 00:42:29;;;;;;;19.08;13.32;;;;;;;14.60;100.00;102355.56;5055289;28;20599;-85
2022/10/18 00:45:39;;;;;;;23.42;16.52;;;;;;;14.53;100.00;102360.16;5064747;28;20050;-85
2022/10/18 00:51:56;;;;;;;27.88;15.18;;;;;;;14.38;100.00;102352.88;5032479;28;20076;-85
2022/10/18 00:57:29;;;;;;;33.53;15.50;;;;;;;14.35;100.00;102363.41;5021654;28;20420;-85
2022/10/18 00:59:57;;;;;;;24.05;12.60;;;;;;;14.34;100.00;102362.53;5024104;28;20042;-84
2022/10/18 01:03:07;;;;;;;28.58;13.15;;;;;;;14.37;100.00;102359.44;5033147;28;20056;-85
2022/10/18 01:12:44;;;;;;;23.90;17.45;;;;;;;14.21;100.00;102376.16;4952726;28;20159;-85
2022/10/18 01:22:05;;;;;;;;;;;;;;;;;;;;;
2022/10/18 01:25:27;;;;;;;17.67;11.90;;;;;;;14.25;100.00;102363.75;4986590;28;20050;-85
2022/10/18 01:31:52;;;;;;;30.00;16.08;;;;;;;14.14;100.00;102373.38;4921967;28;20047;-86
2022/10/18 01:40:43;;;;;;;28.83;15.45;;;;;;;13.78;100.00;102388.00;4994812;28;20188;-85
2022/10/18 01:56:40;;;;;;;38.70;16.55;;;;;;;13.97;100.00;102367.34;4925477;28;20137;-86
2022/10/18 01:59:44;;;;;;;24.10;12.32;;;;;;;13.91;100.00;102367.28;4948401;28;20062;-86
2022/10/18 02:02:55;;;;;;;25.17;14.95;;;;;;;13.86;100.00;102374.19;4947974;28;20063;-85
2022/10/18 02:14:56;;;;;;;24.40;15.02;;;;;;;13.96;100.00;102375.75;4905368;29;20262;-85
2022/10/18 02:21:21;;;;;;;27.48;15.80;;;;;;;13.88;100.00;102368.53;4971092;28;20065;-86
2022/10/18 02:24:27;;;;;;;38.38;20.00;;;;;;;13.90;100.00;102371.94;4935698;29;20048;-86
2022/10/18 02:26:57;;;;;;;37.65;19.15;;;;;;;13.84;100.00;102373.56;4906405;29;20067;-86
2022/10/18 02:42:10;;;;;;;31.08;17.45;;;;;;;13.69;100.00;102385.63;5015256;28;20041;-85
2022/10/18 02:45:16;;;;;;;36.20;22.70;;;;;;;13.54;100.00;102377.47;5045181;28;20051;-85
2022/10/18 02:47:45;;;;;;;37.40;19.90;;;;;;;13.56;100.00;102373.50;5003713;28;20056;-85
2022/10/18 02:50:54;;;;;;;30.08;19.33;;;;;;;13.61;100.00;102376.50;5056640;28;20049;-85
2022/10/18 02:53:22;;;;;;;30.15;19.00;;;;;;;13.45;100.00;102384.94;4925879;29;20107;-85
2022/10/18 02:56:30;;;;;;;24.80;16.25;;;;;;;13.44;100.00;102386.84;4910779;29;20785;-85
2022/10/18 02:59:09;;;;;;;;;;;;;;;;;;;;;
2022/10/18 03:02:06;;;;;;;35.58;19.30;;;;;;;13.36;100.00;102370.53;5020530;28;20040;-85
2022/10/18 03:08:21;;;;;;;24.98;16.30;;;;;;;13.44;100.00;102377.78;4961706;28;20043;-85
2022/10/18 03:11:30;;;;;;;28.73;17.23;;;;;;;13.36;100.00;102375.19;4909594;29;20055;-86
2022/10/18 03:17:09;;;;;;;29.05;16.77;;;;;;;13.48;100.00;102373.63;4979319;28;20056;-85
2022/10/18 03:22:40;;;;;;;24.88;14.32;;;;;;;13.41;100.00;102378.19;4992237;28;20188;-86
2022/10/18 03:25:07;;;;;;;29.40;18.67;;;;;;;13.42;100.00;102374.41;4985843;28;20068;-86
2022/10/18 03:27:34;;;;;;;21.85;14.13;;;;;;;13.39;100.00;102383.00;5030809;28;20139;-86
2022/10/18 03:30:32;;;;;;;25.08;12.00;;;;;;;13.38;100.00;102384.03;5065020;28;20452;-85
2022/10/18 03:33:40;;;;;;;20.75;13.63;;;;;;;13.27;100.00;102383.47;4960674;28;20077;-85
2022/10/18 03:36:09;;;;;;;12.73;11.40;;;;;;;13.29;100.00;102385.19;5046750;28;20129;-85
2022/10/18 03:44:58;;;;;;;17.55;11.20;;;;;;;13.16;100.00;102381.22;5046724;28;20048;-85
2022/10/18 03:48:05;;;;;;;22.33;12.85;;;;;;;13.11;100.00;102389.19;5057599;28;20045;-85
2022/10/18 03:50:32;;;;;;;19.05;11.88;;;;;;;13.12;100.00;102385.38;5062741;28;20052;-85
2022/10/18 04:06:29;;;;;;;18.15;13.15;;;;;;;12.93;100.00;102383.25;4897203;29;20130;-86
2022/10/18 04:08:58;;;;;;;22.10;10.80;;;;;;;12.91;100.00;102379.88;4966252;28;20604;-86
2022/10/18 04:12:03;;;;;;;24.75;12.27;;;;;;;12.83;100.00;102378.09;4969072;28;20047;-86
2022/10/18 04:14:33;;;;;;;20.00;11.18;;;;;;;12.59;100.00;102373.78;5002335;28;20096;-85
2022/10/18 04:20:08;;;;;;;14.82;10.15;;;;;;;12.66;100.00;102374.69;4985281;28;20050;-86
2022/10/18 04:22:35;;;;;;;15.60;10.98;;;;;;;12.69;100.00;102377.06;5028544;28;20061;-86
2022/10/18 04:28:58;;;;;;;15.93;12.13;;;;;;;12.80;100.00;102382.03;4979484;28;20055;-87
2022/10/18 04:32:09;;;;;;;20.63;11.05;;;;;;;12.74;100.00;102373.78;4982482;28;20058;-86
2022/10/18 04:38:26;;;;;;;26.40;12.65;;;;;;;12.48;100.00;102376.97;5056092;28;20044;-86
2022/10/18 04:40:58;;;;;;;27.92;11.43;;;;;;;12.61;100.00;102378.00;5055926;28;20037;-86
2022/10/18 04:46:36;;;;;;;18.05;10.00;;;;;;;12.62;100.00;102378.84;5058981;28;20174;-86
2022/10/18 04:52:47;;;;;;;25.65;14.57;;;;;;;12.41;100.00;102377.72;5003065;28;20057;-86
2022/10/18 04:55:52;;;;;;;15.10;10.73;;;;;;;12.49;100.00;102384.13;5001414;28;20049;-86
2022/10/18 04:58:24;;;;;;;28.13;13.60;;;;;;;12.41;100.00;102388.66;4982794;28;20058;-86
2022/10/18 05:01:31;;;;;;;19.92;12.57;;;;;;;12.43;100.00;102392.03;4994828;28;20052;-86
2022/10/18 05:04:28;;;;;;;22.90;12.43;;;;;;;12.30;100.00;102386.34;5063479;28;20689;-87
2022/10/18 05:06:54;;;;;;;28.13;12.45;;;;;;;12.32;100.00;102388.91;5016195;28;20061;-86
2022/10/18 05:10:07;;;;;;;20.30;12.98;;;;;;;12.34;100.00;102390.41;5054930;28;20139;-87
2022/10/18 05:47:57;;;;;;;18.13;9.93;;;;;;;12.17;100.00;102416.16;4695860;29;20148;-86
2022/10/18 06:04:58;;;;;;;44.85;16.60;;;;;;;12.09;100.00;102432.59;5035377;28;20049;-87
2022/10/18 06:21:48;;;;;;;16.33;11.55;;;;;;;12.37;100.00;102452.84;4987523;28;20077;-85
2022/10/18 06:25:09;;;;;;;;;;;;;;;;;;;;;
2022/10/18 06:28:12;;;;;;;42.67;16.63;;;;;;;12.42;100.00;102477.69;5055846;28;20059;-87
2022/10/18 06:31:20;;;;;;;20.08;10.45;;;;;;;12.53;100.00;102470.09;5033568;28;20651;-87
2022/10/18 06:37:00;;;;;;;24.35;12.10;;;;;;;12.54;100.00;102474.53;5079349;28;20064;-87
2022/10/18 06:40:05;;;;;;;23.60;7.28;;;;;;;12.57;100.00;102495.97;5017752;28;20160;-87
2022/10/18 06:45:46;;;;;;;16.55;7.55;;;;;;;12.78;100.00;102490.66;5024067;28;20053;-87
2022/10/18 06:52:07;;;;;;;14.93;9.25;;;;;;;12.74;100.00;102507.59;4966138;28;20459;-87
2022/10/18 06:54:35;;;;;;;13.20;8.40;;;;;;;12.75;100.00;102504.69;5025953;28;20050;-87
2022/10/18 06:57:57;;;;;;;;;;;;;;;;;;;;;
2022/10/18 07:01:47;;;;;;;22.85;12.32;;;;;;;12.54;100.00;102520.94;4907103;29;20156;-87
2022/10/18 07:04:56;;;;;;;13.40;8.05;;;;;;;12.62;100.00;102527.19;4933464;29;20056;-87
2022/10/18 07:10:37;;;;;;;13.82;8.18;;;;;;;12.54;100.00;102529.13;5043899;28;20045;-87
2022/10/18 07:16:58;;;;;;;17.65;9.48;;;;;;;12.55;100.00;102534.38;4925197;29;20476;-87
2022/10/18 07:20:06;;;;;;;10.07;6.18;;;;;;;12.49;100.00;102537.84;4963166;28;20136;-87
2022/10/18 07:23:19;;;;;;;10.35;7.95;;;;;;;12.58;100.00;102546.81;4983459;28;20081;-88
2022/10/18 07:29:19;;;;;;;18.40;7.95;;;;;;;12.55;100.00;102548.03;4982378;28;20503;-88
2022/10/18 07:32:10;;;;;;;10.25;6.60;;;;;;;12.54;100.00;102550.97;4994931;28;20046;-87
2022/10/18 07:38:23;;;;;;;11.27;7.47;;;;;;;12.73;100.00;102547.72;4981397;28;20120;-87
2022/10/18 07:41:34;;;;;;;18.52;9.68;;;;;;;12.76;100.00;102550.06;4991032;28;20045;-88
2022/10/18 07:44:45;;;;;;;12.20;7.25;;;;;;;12.79;100.00;102567.97;5006122;28;20521;-88
2022/10/18 07:50:43;;;;;;;15.25;7.00;;;;;;;12.90;100.00;102573.00;4961832;28;20059;-88
2022/10/18 07:59:11;;;;;;;15.70;8.45;;;;;;;13.08;100.00;102572.63;5043579;28;20515;-87
2022/10/18 08:04:43;;;;;;;16.13;7.20;;;;;;;13.23;100.00;102587.16;5041110;28;20047;-88
2022/10/18 08:07:12;;;;;;;24.45;6.22;;;;;;;13.23;100.00;102595.34;5043826;28;20185;-87
2022/10/18 08:12:45;;;;;;;19.20;5.83;;;;;;;13.54;100.00;102590.78;5038098;28;20191;-86
2022/10/18 08:15:26;;;;;;;;;;;;;;;;;;;;;
2022/10/18 08:18:58;;;;;;;22.92;5.70;;;;;;;13.59;100.00;102591.06;5031350;28;20041;-87
2022/10/18 08:24:47;;;;;;;23.10;4.97;;;;;;;13.80;100.00;102590.28;5041202;28;20063;-87
2022/10/18 08:28:00;;;;;;;17.15;3.70;;;;;;;13.87;100.00;102589.31;5040728;28;20049;-87
2022/10/18 08:31:12;;;;;;;16.90;4.13;;;;;;;13.89;100.00;102588.28;4994076;28;20049;-87
2022/10/18 08:34:11;;;;;;;14.50;3.83;;;;;;;13.99;100.00;102603.34;4996079;28;20248;-87
2022/10/18 08:37:13;;;;;;;20.88;4.68;;;;;;;14.00;100.00;102604.19;5041981;28;20041;-87
2022/10/18 08:46:34;;;;;;;15.25;2.95;;;;;;;14.32;100.00;102594.66;4986288;28;20170;-87
2022/10/18 08:58:54;;;;;;;;;;;;;;;14.48;100.00;102590.81;4989415;28;20106;-87
2022/10/18 09:05:46;;;;;;;18.38;2.75;;;;;;;14.81;100.00;102596.66;4966188;28;20062;-87
2022/10/18 09:09:09;;;;;;;;;;;;;;;;;;;;;
2022/10/18 09:12:47;;;;;;;;;;;;;;;;;;;;;
2022/10/18 09:25:58;;;;;;;;;;;;;;;;;;;;;
2022/10/18 09:29:10;;;;;;;25.73;3.83;;;;;;;15.34;100.00;102614.50;4959897;28;20043;-86
2022/10/18 09:32:16;;;;;;;25.33;3.75;;;;;;;15.39;100.00;102614.78;5004250;28;20052;-85
2022/10/18 09:35:30;;;;;;;22.70;3.83;;;;;;;15.44;100.00;102609.50;5040653;28;20128;-86
2022/10/18 09:41:55;;;;;;;16.92;2.75;;;;;;;15.66;100.00;102608.38;4940045;28;20051;-86
2022/10/18 09:44:25;;;;;;;17.92;3.28;;;;;;;15.86;100.00;102624.13;4966021;28;20146;-86
2022/10/18 09:56:50;;;;;;;18.77;2.58;;;;;;;16.32;100.00;102639.94;5036600;28;20045;-86
2022/10/18 10:00:00;;;;;;;15.57;2.90;;;;;;;16.42;100.00;102636.78;5045039;28;20044;-86
2022/10/18 10:02:37;;;;;;;;;;;;;;;;;;;;;
2022/10/18 10:05:35;;;;;;;17.73;3.33;;;;;;;16.60;100.00;102642.53;5046759;28;20447;-86
2022/10/18 10:08:03;;;;;;;16.33;2.85;;;;;;;16.65;100.00;102641.88;5040562;28;20068;-86
2022/10/18 10:11:11;;;;;;;16.48;2.55;;;;;;;16.86;100.00;102644.47;5040648;28;20037;-86
2022/10/18 10:24:58;;;;;;;8.95;2.45;;;;;;;17.18;100.00;102650.19;5038483;28;20039;-85
2022/10/18 10:28:18;;;;;;;12.93;2.35;;;;;;;16.98;100.00;102660.34;5025506;28;20053;-86
2022/10/18 10:30:46;;;;;;;10.07;2.28;;;;;;;16.62;100.00;102661.56;5041058;28;20049;-85
2022/10/18 10:33:59;;;;;;;10.40;2.38;;;;;;;16.66;100.00;102652.69;5040341;28;20052;-86
2022/10/18 10:37:06;;;;;;;12.45;2.28;;;;;;;17.06;100.00;102647.22;5002408;28;20084;-86
2022/10/18 10:44:09;;;;;;;10.10;2.00;;;;;;;17.07;100.00;102664.59;4923527;29;20059;-86
2022/10/18 10:46:55;;;;;;;11.43;2.28;;;;;;;17.20;100.00;102670.06;4916803;28;20041;-85
2022/10/18 10:59:31;;;;;;;;;;;;;;;;;;;;;
2022/10/18 11:06:24;;;;;;;12.32;1.85;;;;;;;17.94;100.00;102679.06;4980579;28;20061;-85
2022/10/18 11:09:42;;;;;;;;;;;;;;;;;;;;;
2022/10/18 11:32:11;;;;;;;14.55;2.85;;;;;;;18.63;100.00;102668.34;5043284;28;20057;-87
2022/10/18 11:52:20;;;;;;;12.68;2.10;;;;;;;18.36;100.00;102670.41;4979562;28;20047;-86
2022/10/18 11:55:34;;;;;;;11.38;2.33;;;;;;;18.29;100.00;102673.19;5060712;28;20048;-86
2022/10/18 12:01:59;;;;;;;12.38;2.22;;;;;;;18.62;100.00;102655.63;5040526;28;20134;-86
2022/10/18 12:07:38;;;;;;;12.65;2.55;;;;;;;18.81;100.00;102662.09;4981903;28;20145;-86
2022/10/18 12:10:43;;;;;;;10.18;2.63;;;;;;;18.45;100.00;102660.81;4977507;28;20064;-85
2022/10/18 12:19:38;;;;;;;9.45;1.85;;;;;;;18.46;100.00;102660.59;5036480;28;20053;-87
2022/10/18 12:22:44;;;;;;;10.75;2.00;;;;;;;18.44;100.00;102653.59;5044908;28;20049;-86
2022/10/18 12:25:37;;;;;;;;;;;;;;;;;;;;;
2022/10/18 12:34:49;;;;;;;10.32;1.88;;;;;;;18.34;100.00;102654.94;4993755;28;20039;-86
2022/10/18 12:37:54;;;;;;;9.20;1.38;;;;;;;18.63;100.00;102646.28;5038302;28;20056;-86
2022/10/18 12:40:26;;;;;;;18.25;2.33;;;;;;;18.80;100.00;102646.63;5022944;28;20057;-87
2022/10/18 12:43:35;;;;;;;10.65;2.00;;;;;;;18.68;100.00;102643.69;5044836;28;20063;-86
2022/10/18 12:46:45;;;;;;;12.88;1.77;;;;;;;18.77;100.00;102642.38;5046167;28;20041;-86
2022/10/18 12:49:14;;;;;;;16.75;2.03;;;;;;;18.53;100.00;102647.63;5050580;28;21016;-85
2022/10/18 12:52:19;;;;;;;10.77;2.78;;;;;;;18.32;100.00;102656.25;5077368;28;20400;-84
2022/10/18 13:06:06;;;;;;;8.48;1.40;;;;;;;18.86;100.00;102630.00;5044995;28;20218;-87
2022/10/18 13:08:40;;;;;;;11.77;1.50;;;;;;;18.60;100.00;102632.94;5045728;28;20461;-85
2022/10/18 13:11:36;;;;;;;7.65;1.20;;;;;;;18.71;100.00;102637.75;5046836;28;20127;-84
2022/10/18 13:14:48;;;;;;;10.23;1.90;;;;;;;18.69;100.00;102631.59;5044577;28;20046;-85
2022/10/18 13:17:56;;;;;;;7.15;1.35;;;;;;;18.58;100.00;102616.63;5044537;28;20481;-87
2022/10/18 13:20:47;;;;;;;;;;;;;;;18.43;100.00;102614.19;5047353;28;20076;-85
2022/10/18 13:23:56;;;;;;;10.00;1.85;;;;;;;18.73;100.00;102610.78;5051200;28;20296;-85
2022/10/18 13:30:21;;;;;;;6.85;1.50;;;;;;;18.58;100.00;102610.28;4913230;29;20055;-84
2022/10/18 13:39:43;;;;;;;9.45;1.75;;;;;;;18.65;100.00;102619.31;5003516;28;20508;-85
2022/10/18 13:49:01;;;;;;;11.18;1.90;;;;;;;18.67;100.00;102619.94;5041638;28;20052;-86
2022/10/18 13:58:43;;;;;;;10.50;2.05;;;;;;;18.25;100.00;102647.13;5044342;28;20061;-85
2022/10/18 14:02:07;;;;;;;10.57;2.08;;;;;;;18.27;100.00;102645.00;5058058;28;20068;-87
2022/10/18 14:05:14;;;;;;;6.82;1.27;;;;;;;17.93;100.00;102636.91;5042792;28;20053;-85
2022/10/18 14:08:11;;;;;;;7.68;1.40;;;;;;;17.96;100.00;102624.63;5041924;28;20057;-87
2022/10/18 14:11:35;;;;;;;7.90;1.42;;;;;;;18.03;100.00;102643.88;5040308;28;20414;-84
2022/10/18 14:21:26;;;;;;;6.03;1.10;;;;;;;17.67;100.00;102647.97;5044797;28;20074;-86
2022/10/18 14:30:57;;;;;;;;;;;;;;;;;;;;;
2022/10/18 14:34:30;;;;;;;10.02;1.58;;;;;;;17.54;100.00;102648.88;5034652;28;20535;-87
2022/10/18 14:37:50;;;;;;;9.60;1.67;;;;;;;17.70;100.00;102647.53;5041915;28;20041;-84
2022/10/18 14:40:48;;;;;;;10.82;1.55;;;;;;;17.53;100.00;102652.66;4999824;28;20081;-84
2022/10/18 14:43:32;;;;;;;6.30;1.42;;;;;;;17.53;100.00;102647.16;4923437;28;20058;-85
2022/10/18 14:46:26;;;;;;;8.82;1.30;;;;;;;17.48;100.00;102639.56;5034082;28;20103;-85
2022/10/18 14:49:15;;;;;;;6.70;1.75;;;;;;;17.44;100.00;102637.44;5046197;28;20048;-85
2022/10/18 14:55:28;;;;;;;14.20;1.85;;;;;;;17.18;100.00;102639.19;5058767;28;20128;-87
2022/10/18 14:58:26;;;;;;;8.02;1.80;;;;;;;17.33;100.00;102642.53;5043296;28;20071;-85
2022/10/18 15:01:15;;;;;;;10.82;1.70;;;;;;;17.19;100.00;102646.38;5041833;28;20044;-84
2022/10/18 15:04:12;;;;;;;10.35;1.60;;;;;;;17.21;100.00;102644.25;5043553;28;20464;-87
2022/10/18 15:14:16;;;;;;;11.52;2.40;;;;;;;16.91;100.00;102650.16;5026057;28;20057;-87
2022/10/18 15:16:50;;;;;;;12.40;1.88;;;;;;;16.83;100.00;102642.16;5041040;28;20481;-87
2022/10/18 15:20:19;;;;;;;9.73;2.05;;;;;;;16.95;100.00;102649.78;5040918;28;20041;-86
2022/10/18 15:23:47;;;;;;;10.82;2.67;;;;;;;16.80;100.00;102639.81;4954694;28;20165;-87
2022/10/18 15:26:28;;;;;;;11.82;1.70;;;;;;;16.58;100.00;102638.28;4940667;28;20042;-86
2022/10/18 15:29:33;;;;;;;;;;;;;;;;;;;;;
2022/10/18 15:32:47;;;;;;;;;;;;;;;;;;;;;
2022/10/18 15:35:44;;;;;;;15.32;2.00;;;;;;;16.45;100.00;102639.97;5042556;28;20057;-87
2022/10/18 15:38:16;;;;;;;12.93;2.95;;;;;;;16.32;100.00;102645.44;5038986;28;20040;-87
2022/10/18 15:44:09;;;;;;;10.57;2.55;;;;;;;16.00;100.00;102652.47;5041867;28;20069;-86
2022/10/18 15:46:39;;;;;;;9.38;1.77;;;;;;;15.90;100.00;102648.22;5033784;28;20511;-86
2022/10/18 15:49:57;;;;;;;10.55;1.90;;;;;;;15.92;100.00;102650.75;5039238;28;20610;-87
2022/10/18 15:59:03;;;;;;;9.30;1.75;;;;;;;15.87;100.00;102658.75;4962523;28;20064;-87
2022/10/18 16:02:00;;;;;;;12.10;1.92;;;;;;;15.67;100.00;102653.13;4971419;28;20050;-85
2022/10/18 16:04:50;;;;;;;10.05;1.88;;;;;;;15.54;100.00;102658.56;5039083;28;20099;-85
2022/10/18 16:10:25;;;;;;;11.23;2.30;;;;;;;15.55;100.00;102660.22;5037541;28;20081;-85
2022/10/18 16:13:07;;;;;;;;;;;;;;;;;;;;;
2022/10/18 16:15:44;;;;;;;13.32;2.45;;;;;;;15.44;100.00;102665.22;5038081;28;20118;-85
2022/10/18 16:18:15;;;;;;;10.48;2.00;;;;;;;15.42;100.00;102661.00;5036116;28;20073;-85
2022/10/18 16:21:01;;;;;;;11.82;2.50;;;;;;;15.22;100.00;102666.34;5042088;28;20052;-86
2022/10/18 16:23:36;;;;;;;12.30;2.20;;;;;;;15.09;100.00;102662.44;5040238;28;20049;-86
2022/10/18 16:26:03;;;;;;;10.73;1.83;;;;;;;14.91;100.00;102669.44;5055938;28;20045;-86
2022/10/18 16:28:34;;;;;;;9.52;1.90;;;;;;;15.01;100.00;102669.97;5038032;28;20037;-85
2022/10/18 16:35:01;;;;;;;13.07;1.58;;;;;;;14.81;100.00;102656.94;4931660;28;20062;-86
2022/10/18 16:37:38;;;;;;;;;;;;;;;;;;;;;
2022/10/18 16:40:35;;;;;;;12.05;1.95;;;;;;;14.56;100.00;102667.44;5051619;28;20044;-87
2022/10/18 16:43:03;;;;;;;17.30;2.85;;;;;;;14.42;100.00;102665.53;5034643;28;20056;-85
2022/10/18 16:46:02;;;;;;;11.93;1.90;;;;;;;14.30;100.00;102673.41;5058062;28;20495;-85
2022/10/18 16:58:25;;;;;;;11.63;2.20;;;;;;;13.77;100.00;102679.06;5014850;28;20103;-86
2022/10/18 17:01:23;;;;;;;;;;;;;;;;;;;;;
2022/10/18 17:04:11;;;;;;;11.75;2.00;;;;;;;13.54;100.00;102701.03;5036765;28;20061;-85
2022/10/18 17:06:49;;;;;;;;;;;;;;;;;;;;;
2022/10/18 17:09:16;;;;;;;14.93;2.67;;;;;;;13.50;100.00;102699.69;5041042;28;20037;-86
2022/10/18 17:12:14;;;;;;;11.68;2.35;;;;;;;13.39;100.00;102703.75;5045693;28;20045;-86
2022/10/18 17:14:47;;;;;;;16.35;2.90;;;;;;;13.21;100.00;102712.22;5064141;28;20413;-86
2022/10/18 17:17:24;;;;;;;10.57;2.88;;;;;;;13.25;100.00;102715.47;5044101;28;20045;-87
2022/10/18 17:31:09;;;;;;;16.50;3.35;;;;;;;13.00;100.00;102714.81;4944058;28;20537;-87
2022/10/18 17:44:39;;;;;;;19.42;5.50;;;;;;;12.63;100.00;102708.25;4881348;29;20078;-87
2022/10/18 17:51:18;;;;;;;12.35;5.13;;;;;;;12.54;100.00;102725.72;4939977;28;20536;-87
2022/10/18 17:54:12;;;;;;;23.63;4.32;;;;;;;12.62;100.00;102734.72;5015438;28;20053;-87
2022/10/18 17:56:45;;;;;;;9.95;3.35;;;;;;;12.52;100.00;102734.09;5044544;28;20052;-87
2022/10/18 17:59:53;;;;;;;15.95;3.35;;;;;;;12.68;100.00;102732.28;5040554;28;20531;-87
2022/10/18 18:03:10;;;;;;;12.63;2.80;;;;;;;12.59;100.00;102740.53;5038641;28;20049;-87
2022/10/18 18:17:32;;;;;;;;;;;;;;;;;;;;;
2022/10/18 18:20:47;;;;;;;20.83;4.40;;;;;;;11.78;100.00;102741.69;4962772;28;20055;-87
2022/10/18 18:24:18;;;;;;;;;;;;;;;;;;;;;
2022/10/18 19:04:21;;;;;;;20.05;4.07;;;;;;;10.81;100.00;102766.03;4934857;28;20042;-86
2022/10/18 19:11:52;;;;;;;16.45;3.30;;;;;;;10.77;100.00;102776.44;4908367;28;20055;-86
2022/10/18 19:15:22;;;;;;;14.25;3.38;;;;;;;10.62;100.00;102767.19;4995901;28;20109;-87
2022/10/18 19:22:13;;;;;;;11.75;4.20;;;;;;;10.55;100.00;102782.47;4932239;28;20082;-87
2022/10/18 19:25:15;;;;;;;20.73;3.70;;;;;;;10.43;100.00;102773.75;4990798;28;20136;-86
2022/10/18 19:49:25;;;;;;;20.05;3.00;;;;;;;10.23;100.00;102761.41;5096191;27;20438;-86
2022/10/18 19:51:52;;;;;;;15.90;2.70;;;;;;;10.27;100.00;102769.06;5065817;28;20060;-86
2022/10/18 19:54:41;;;;;;;14.10;3.28;;;;;;;10.24;100.00;102761.22;5057722;28;20128;-86
2022/10/18 19:57:10;;;;;;;24.02;4.07;;;;;;;9.90;100.00;102762.09;5060672;28;20125;-86
2022/10/18 19:59:52;;;;;;;13.98;3.55;;;;;;;9.91;100.00;102752.91;5059628;28;20040;-86
2022/10/18 20:05:05;;;;;;;9.40;2.63;;;;;;;9.92;100.00;102765.47;5061460;28;20522;-86
2022/10/18 20:10:52;;;;;;;13.65;2.88;;;;;;;9.88;100.00;102769.56;5048344;28;20063;-87
2022/10/18 20:13:37;;;;;;;13.25;3.00;;;;;;;9.95;100.00;102775.22;5060208;28;20098;-87
2022/10/18 20:16:25;;;;;;;13.25;3.03;;;;;;;9.93;100.00;102772.63;5053177;28;20040;-86
2022/10/18 20:25:57;;;;;;;14.60;3.92;;;;;;;9.53;100.00;102786.81;5001792;28;20053;-88
2022/10/18 20:28:42;;;;;;;14.38;3.75;;;;;;;9.59;100.00;102775.31;4937086;28;20050;-85
2022/10/18 20:34:27;;;;;;;18.90;3.85;;;;;;;9.48;100.00;102779.13;5044824;28;20056;-86
2022/10/18 20:37:12;;;;;;;17.42;4.57;;;;;;;9.33;100.00;102781.56;5050214;28;20040;-86
2022/10/18 20:40:09;;;;;;;18.60;4.38;;;;;;;9.24;100.00;102768.91;5052962;28;20129;-86
2022/10/18 20:42:40;;;;;;;13.27;3.75;;;;;;;9.18;100.00;102764.97;5066137;28;20124;-86
2022/10/18 20:45:23;;;;;;;14.60;3.80;;;;;;;9.12;100.00;102765.59;5075492;28;20056;-86
2022/10/18 20:47:59;;;;;;;14.50;4.72;;;;;;;9.01;100.00;102754.97;5068606;28;20140;-86
2022/10/18 20:51:15;;;;;;;;;;;;;;;;;;;;;
2022/10/18 20:54:16;;;;;;;;;;;;;;;;;;;;;
2022/10/18 20:57:05;;;;;;;20.17;3.92;;;;;;;8.85;100.00;102743.94;5040576;28;20128;-86
2022/10/18 21:02:26;;;;;;;11.38;3.55;;;;;;;8.93;100.00;102754.88;5047372;28;20055;-85
2022/10/18 21:05:04;;;;;;;17.58;4.38;;;;;;;8.86;100.00;102745.63;5050801;28;20065;-86
2022/10/18 21:07:51;;;;;;;8.57;3.35;;;;;;;8.69;100.00;102750.03;5042145;28;20065;-86
2022/10/18 21:10:41;;;;;;;21.35;4.63;;;;;;;8.59;100.00;102747.41;5059593;28;20045;-86
2022/10/18 21:13:44;;;;;;;21.80;5.03;;;;;;;8.76;100.00;102743.84;5043144;28;20067;-85
2022/10/18 21:16:14;;;;;;;16.15;3.90;;;;;;;8.65;100.00;102756.78;5032197;28;20041;-86
2022/10/18 21:22:12;;;;;;;23.08;4.13;;;;;;;8.67;100.00;102757.47;5045409;28;20529;-86
2022/10/18 21:24:43;;;;;;;14.82;4.00;;;;;;;8.52;100.00;102751.72;5042367;28;20036;-85
2022/10/18 21:34:17;;;;;;;21.85;4.93;;;;;;;8.67;100.00;102747.50;5038023;28;20045;-86
2022/10/18 21:36:46;;;;;;;15.93;5.13;;;;;;;8.71;100.00;102742.59;5040684;28;20041;-86
2022/10/18 21:39:16;;;;;;;18.02;5.05;;;;;;;8.60;100.00;102751.81;5034346;28;20095;-86
2022/10/18 21:42:04;;;;;;;;;;;;;;;;;;;;;
2022/10/18 21:44:56;;;;;;;14.85;4.32;;;;;;;8.66;100.00;102751.22;5036383;28;20084;-86
2022/10/18 21:47:28;;;;;;;15.05;4.25;;;;;;;8.45;100.00;102759.63;5043685;28;20044;-86
2022/10/18 21:50:34;;;;;;;19.08;4.85;;;;;;;8.48;100.00;102753.03;5038189;28;20040;-85
2022/10/18 21:53:02;;;;;;;11.75;4.53;;;;;;;8.67;100.00;102763.78;5040259;28;20055;-85
2022/10/18 21:55:29;;;;;;;28.15;5.70;;;;;;;8.68;100.00;102751.91;5044825;28;20037;-86
2022/10/18 21:58:26;;;;;;;16.55;4.35;;;;;;;8.68;100.00;102760.06;5044662;28;20041;-86
2022/10/18 22:00:53;;;;;;;25.60;5.55;;;;;;;8.60;100.00;102751.81;5021329;28;20073;-86
2022/10/18 22:03:50;;;;;;;14.13;4.78;;;;;;;8.16;100.00;102748.91;5046883;28;20040;-85
2022/10/18 22:06:31;;;;;;;15.27;4.70;;;;;;;8.36;100.00;102747.78;5042978;28;20040;-86
2022/10/18 22:09:26;;;;;;;21.92;5.38;;;;;;;8.36;100.00;102744.22;5042414;28;20049;-86
2022/10/18 22:12:05;;;;;;;12.90;5.28;;;;;;;8.32;100.00;102743.66;5043127;28;20106;-86
2022/10/18 22:15:06;;;;;;;21.83;5.15;;;;;;;8.27;100.00;102743.28;5045672;28;20667;-86
2022/10/18 22:18:01;;;;;;;19.35;5.28;;;;;;;8.51;100.00;102742.75;5044671;28;20449;-87
2022/10/18 22:21:02;;;;;;;18.17;5.55;;;;;;;8.38;100.00;102745.78;5046961;28;20061;-86
2022/10/18 22:23:57;;;;;;;;;;;;;;;;;;;;;
2022/10/18 22:26:41;;;;;;;22.80;7.13;;;;;;;8.20;100.00;102744.88;5038103;28;20494;-86
2022/10/18 22:32:30;;;;;;;20.02;6.20;;;;;;;8.15;100.00;102737.19;5044633;28;20083;-86
2022/10/18 22:34:59;;;;;;;35.22;7.35;;;;;;;8.29;100.00;102741.28;5055935;28;20432;-86
2022/10/18 22:44:16;;;;;;;34.92;8.95;;;;;;;8.52;100.00;102738.16;4962067;28;20137;-86
2022/10/18 22:47:03;;;;;;;34.33;7.30;;;;;;;8.51;100.00;102731.88;5035285;28;20052;-85
2022/10/18 22:52:35;;;;;;;33.33;7.00;;;;;;;8.53;100.00;102735.31;5044560;28;20064;-86
2022/10/18 22:55:02;;;;;;;55.55;8.52;;;;;;;8.21;100.00;102733.03;5051200;28;20044;-86
2022/10/18 22:57:30;;;;;;;67.00;8.68;;;;;;;8.22;100.00;102726.59;5038200;28;20212;-86
2022/10/18 23:00:35;;;;;;;28.55;7.80;;;;;;;8.31;100.00;102725.72;5057920;28;20407;-86
2022/10/18 23:03:03;;;;;;;20.00;6.20;;;;;;;8.43;100.00;102733.66;5044534;28;20040;-85
2022/10/18 23:05:30;;;;;;;17.63;6.15;;;;;;;8.44;100.00;102725.38;5039783;28;20040;-86
2022/10/18 23:08:38;;;;;;;19.15;6.80;;;;;;;8.27;100.00;102728.88;5042809;28;20044;-85
2022/10/18 23:11:05;;;;;;;17.23;7.28;;;;;;;8.42;100.00;102740.09;4923446;29;20154;-86
2022/10/18 23:13:46;;;;;;;16.30;5.97;;;;;;;8.48;100.00;102736.75;5046940;28;20813;-86
2022/10/18 23:19:29;;;;;;;33.20;7.95;;;;;;;8.49;100.00;102733.06;5042345;28;20053;-86
2022/10/18 23:22:00;;;;;;;29.73;8.25;;;;;;;8.48;100.00;102725.91;5042003;28;20037;-86
2022/10/18 23:25:08;;;;;;;;;;;;;;;;;;;;;